sensor_id;sensor_type;location;lat;lon;timestamp;pressure;altitude;pressure_sealevel;temperature;humidity
11692;BME280;33659;42.672;23.354;2023-04-26T00:01:31;93436.84;;;12.62;75.01
11692;BME280;33659;42.672;23.354;2023-04-26T00:03:59;93431.22;;;12.60;75.14
11692;BME280;33659;42.672;23.354;2023-04-26T00:06:28;93428.28;;;12.68;75.06
11692;BME280;33659;42.672;23.354;2023-04-26T00:08:55;93427.94;;;12.70;74.95
11692;BME280;33659;42.672;23.354;2023-04-26T00:11:21;93417.84;;;12.72;74.88
11692;BME280;33659;42.672;23.354;2023-04-26T00:13:48;93415.97;;;12.72;74.83
11692;BME280;33659;42.672;23.354;2023-04-26T00:16:15;93408.06;;;12.65;75.34
11692;BME280;33659;42.672;23.354;2023-04-26T00:18:42;93406.97;;;12.66;74.94
11692;BME280;33659;42.672;23.354;2023-04-26T00:21:10;93397.97;;;12.67;74.80
11692;BME280;33659;42.672;23.354;2023-04-26T00:23:38;93402.47;;;12.63;74.89
11692;BME280;33659;42.672;23.354;2023-04-26T00:26:05;93403.22;;;12.64;74.82
11692;BME280;33659;42.672;23.354;2023-04-26T00:28:31;93406.19;;;12.62;74.68
11692;BME280;33659;42.672;23.354;2023-04-26T00:30:58;93402.03;;;12.58;74.76
11692;BME280;33659;42.672;23.354;2023-04-26T00:33:26;93395.97;;;12.46;74.85
11692;BME280;33659;42.672;23.354;2023-04-26T00:35:52;93395.22;;;12.46;75.13
11692;BME280;33659;42.672;23.354;2023-04-26T00:38:19;93387.72;;;12.44;75.12
11692;BME280;33659;42.672;23.354;2023-04-26T00:40:47;93393.72;;;12.45;75.24
11692;BME280;33659;42.672;23.354;2023-04-26T00:43:13;93389.19;;;12.42;75.20
11692;BME280;33659;42.672;23.354;2023-04-26T00:45:40;93388.16;;;12.50;75.21
11692;BME280;33659;42.672;23.354;2023-04-26T00:48:07;93386.28;;;12.51;75.09
11692;BME280;33659;42.672;23.354;2023-04-26T00:50:34;93384.00;;;12.49;75.10
11692;BME280;33659;42.672;23.354;2023-04-26T00:53:01;93382.50;;;12.48;75.07
11692;BME280;33659;42.672;23.354;2023-04-26T00:55:29;93392.97;;;12.44;75.25
11692;BME280;33659;42.672;23.354;2023-04-26T00:57:57;93387.25;;;12.35;75.77
11692;BME280;33659;42.672;23.354;2023-04-26T01:00:23;93389.44;;;12.26;75.90
11692;BME280;33659;42.672;23.354;2023-04-26T01:02:50;93395.38;;;12.23;76.39
11692;BME280;33659;42.672;23.354;2023-04-26T01:05:17;93392.75;;;12.23;76.31
11692;BME280;33659;42.672;23.354;2023-04-26T01:07:44;93392.06;;;12.26;76.33
11692;BME280;33659;42.672;23.354;2023-04-26T01:10:11;93395.06;;;12.28;76.27
11692;BME280;33659;42.672;23.354;2023-04-26T01:12:38;93396.16;;;12.27;76.12
11692;BME280;33659;42.672;23.354;2023-04-26T01:15:08;93400.69;;;12.30;76.04
11692;BME280;33659;42.672;23.354;2023-04-26T01:17:36;93402.47;;;12.23;76.06
11692;BME280;33659;42.672;23.354;2023-04-26T01:20:04;93404.22;;;12.08;76.57
11692;BME280;33659;42.672;23.354;2023-04-26T01:22:33;93392.56;;;12.02;76.95
11692;BME280;33659;42.672;23.354;2023-04-26T01:25:00;93363.69;;;11.91;76.73
11692;BME280;33659;42.672;23.354;2023-04-26T01:27:31;93373.94;;;12.10;76.39
11692;BME280;33659;42.672;23.354;2023-04-26T01:29:58;93380.03;;;12.18;75.81
11692;BME280;33659;42.672;23.354;2023-04-26T01:32:25;93370.66;;;12.17;76.07
11692;BME280;33659;42.672;23.354;2023-04-26T01:34:52;93375.56;;;12.22;75.64
11692;BME280;33659;42.672;23.354;2023-04-26T01:37:18;93378.22;;;12.26;75.72
11692;BME280;33659;42.672;23.354;2023-04-26T01:39:46;93382.38;;;12.30;75.38
11692;BME280;33659;42.672;23.354;2023-04-26T01:42:13;93385.00;;;12.30;75.22
11692;BME280;33659;42.672;23.354;2023-04-26T01:44:39;93391.03;;;12.38;75.02
11692;BME280;33659;42.672;23.354;2023-04-26T01:47:06;93390.66;;;12.39;75.35
11692;BME280;33659;42.672;23.354;2023-04-26T01:49:33;93402.94;;;12.32;75.35
11692;BME280;33659;42.672;23.354;2023-04-26T01:52:01;93400.28;;;12.28;75.13
11692;BME280;33659;42.672;23.354;2023-04-26T01:54:28;93395.66;;;12.11;75.54
11692;BME280;33659;42.672;23.354;2023-04-26T01:56:56;93400.75;;;11.97;75.91
11692;BME280;33659;42.672;23.354;2023-04-26T01:59:22;93395.44;;;11.89;76.10
11692;BME280;33659;42.672;23.354;2023-04-26T02:01:49;93396.16;;;11.86;75.94
11692;BME280;33659;42.672;23.354;2023-04-26T02:04:16;93388.72;;;11.88;75.82
11692;BME280;33659;42.672;23.354;2023-04-26T02:06:43;93381.25;;;11.90;75.44
11692;BME280;33659;42.672;23.354;2023-04-26T02:09:09;93378.97;;;11.85;75.37
11692;BME280;33659;42.672;23.354;2023-04-26T02:11:36;93379.75;;;11.89;75.62
11692;BME280;33659;42.672;23.354;2023-04-26T02:14:04;93380.47;;;11.86;75.68
11692;BME280;33659;42.672;23.354;2023-04-26T02:16:31;93384.97;;;11.89;75.63
11692;BME280;33659;42.672;23.354;2023-04-26T02:18:57;93375.31;;;11.93;75.41
11692;BME280;33659;42.672;23.354;2023-04-26T02:21:24;93376.75;;;11.91;75.46
11692;BME280;33659;42.672;23.354;2023-04-26T02:23:52;93367.84;;;11.96;75.63
11692;BME280;33659;42.672;23.354;2023-04-26T02:26:19;93373.06;;;11.96;75.60
11692;BME280;33659;42.672;23.354;2023-04-26T02:28:45;93373.06;;;11.96;75.51
11692;BME280;33659;42.672;23.354;2023-04-26T02:31:13;93368.22;;;11.94;75.47
11692;BME280;33659;42.672;23.354;2023-04-26T02:33:40;93376.81;;;11.95;75.64
11692;BME280;33659;42.672;23.354;2023-04-26T02:36:07;93370.44;;;11.92;75.93
11692;BME280;33659;42.672;23.354;2023-04-26T02:38:35;93377.09;;;11.86;75.97
11692;BME280;33659;42.672;23.354;2023-04-26T02:41:02;93381.75;;;11.70;76.39
11692;BME280;33659;42.672;23.354;2023-04-26T02:43:29;93381.97;;;11.54;76.96
11692;BME280;33659;42.672;23.354;2023-04-26T02:45:56;93374.97;;;11.31;77.74
11692;BME280;33659;42.672;23.354;2023-04-26T02:48:26;93372.78;;;11.33;78.63
11692;BME280;33659;42.672;23.354;2023-04-26T02:50:53;93376.16;;;11.37;78.68
11692;BME280;33659;42.672;23.354;2023-04-26T02:53:21;93366.53;;;11.45;78.61
11692;BME280;33659;42.672;23.354;2023-04-26T02:55:47;93365.09;;;11.48;78.40
11692;BME280;33659;42.672;23.354;2023-04-26T02:58:15;93359.56;;;11.53;78.35
11692;BME280;33659;42.672;23.354;2023-04-26T03:00:44;93360.69;;;11.55;78.10
11692;BME280;33659;42.672;23.354;2023-04-26T03:03:11;93347.97;;;11.54;77.78
11692;BME280;33659;42.672;23.354;2023-04-26T03:05:39;93358.50;;;11.61;77.35
11692;BME280;33659;42.672;23.354;2023-04-26T03:08:07;93364.50;;;11.61;77.35
11692;BME280;33659;42.672;23.354;2023-04-26T03:10:33;93348.31;;;11.52;77.09
11692;BME280;33659;42.672;23.354;2023-04-26T03:13:00;93366.44;;;11.68;76.63
11692;BME280;33659;42.672;23.354;2023-04-26T03:15:28;93371.66;;;11.68;76.94
11692;BME280;33659;42.672;23.354;2023-04-26T03:17:54;93369.00;;;11.64;76.71
11692;BME280;33659;42.672;23.354;2023-04-26T03:20:22;93360.00;;;11.62;76.83
11692;BME280;33659;42.672;23.354;2023-04-26T03:22:50;93358.91;;;11.63;76.79
11692;BME280;33659;42.672;23.354;2023-04-26T03:25:17;93355.97;;;11.68;76.59
11692;BME280;33659;42.672;23.354;2023-04-26T03:27:43;93353.38;;;11.72;76.21
11692;BME280;33659;42.672;23.354;2023-04-26T03:30:11;93352.31;;;11.76;75.77
11692;BME280;33659;42.672;23.354;2023-04-26T03:32:37;93354.94;;;11.76;75.37
11692;BME280;33659;42.672;23.354;2023-04-26T03:35:05;93352.81;;;11.85;74.44
11692;BME280;33659;42.672;23.354;2023-04-26T03:37:31;93350.81;;;11.75;74.16
11692;BME280;33659;42.672;23.354;2023-04-26T03:39:59;93366.13;;;11.73;74.14
11692;BME280;33659;42.672;23.354;2023-04-26T03:42:26;93361.50;;;11.59;74.68
11692;BME280;33659;42.672;23.354;2023-04-26T03:44:53;93364.44;;;11.58;74.53
11692;BME280;33659;42.672;23.354;2023-04-26T03:47:19;93366.63;;;11.52;75.00
11692;BME280;33659;42.672;23.354;2023-04-26T03:49:46;93368.84;;;11.50;75.15
11692;BME280;33659;42.672;23.354;2023-04-26T03:52:13;93370.72;;;11.50;75.68
11692;BME280;33659;42.672;23.354;2023-04-26T03:54:39;93376.03;;;11.57;75.83
11692;BME280;33659;42.672;23.354;2023-04-26T03:57:07;93377.59;;;11.65;75.50
11692;BME280;33659;42.672;23.354;2023-04-26T03:59:34;93375.81;;;11.73;75.26
11692;BME280;33659;42.672;23.354;2023-04-26T04:02:01;93374.81;;;11.81;75.20
11692;BME280;33659;42.672;23.354;2023-04-26T04:04:28;93379.38;;;11.91;74.22
11692;BME280;33659;42.672;23.354;2023-04-26T04:06:55;93380.94;;;11.96;73.78
11692;BME280;33659;42.672;23.354;2023-04-26T04:09:21;93389.22;;;12.01;72.83
11692;BME280;33659;42.672;23.354;2023-04-26T04:11:48;93382.91;;;12.06;71.39
11692;BME280;33659;42.672;23.354;2023-04-26T04:14:16;93391.94;;;12.12;71.53
11692;BME280;33659;42.672;23.354;2023-04-26T04:16:43;93392.69;;;12.16;72.02
11692;BME280;33659;42.672;23.354;2023-04-26T04:19:09;93399.44;;;12.17;71.57
11692;BME280;33659;42.672;23.354;2023-04-26T04:21:36;93393.50;;;12.20;71.90
11692;BME280;33659;42.672;23.354;2023-04-26T04:24:03;93398.41;;;12.25;72.22
11692;BME280;33659;42.672;23.354;2023-04-26T04:26:30;93402.53;;;12.26;72.40
11692;BME280;33659;42.672;23.354;2023-04-26T04:28:57;93404.41;;;12.26;72.99
11692;BME280;33659;42.672;23.354;2023-04-26T04:31:34;93399.16;;;12.26;73.01
11692;BME280;33659;42.672;23.354;2023-04-26T04:34:00;93403.28;;;12.27;72.84
11692;BME280;33659;42.672;23.354;2023-04-26T04:36:27;93405.16;;;12.26;71.82
11692;BME280;33659;42.672;23.354;2023-04-26T04:38:54;93406.69;;;12.31;72.16
11692;BME280;33659;42.672;23.354;2023-04-26T04:41:20;93397.78;;;12.39;71.68
11692;BME280;33659;42.672;23.354;2023-04-26T04:43:47;93405.66;;;12.42;71.38
11692;BME280;33659;42.672;23.354;2023-04-26T04:46:15;93412.41;;;12.47;70.99
11692;BME280;33659;42.672;23.354;2023-04-26T04:48:43;93406.81;;;12.48;71.16
11692;BME280;33659;42.672;23.354;2023-04-26T04:51:09;93404.19;;;12.48;71.44
11692;BME280;33659;42.672;23.354;2023-04-26T04:53:36;93409.44;;;12.48;71.44
11692;BME280;33659;42.672;23.354;2023-04-26T04:56:03;93416.97;;;12.54;71.44
11692;BME280;33659;42.672;23.354;2023-04-26T04:58:30;93402.75;;;12.51;70.99
11692;BME280;33659;42.672;23.354;2023-04-26T05:00:57;93402.03;;;12.58;71.18
11692;BME280;33659;42.672;23.354;2023-04-26T05:03:25;93411.81;;;12.64;70.91
11692;BME280;33659;42.672;23.354;2023-04-26T05:05:53;93413.34;;;12.69;70.71
11692;BME280;33659;42.672;23.354;2023-04-26T05:08:20;93408.16;;;12.76;70.38
11692;BME280;33659;42.672;23.354;2023-04-26T05:10:46;93407.47;;;12.83;70.16
11692;BME280;33659;42.672;23.354;2023-04-26T05:13:13;93411.59;;;12.87;69.95
11692;BME280;33659;42.672;23.354;2023-04-26T05:15:40;93410.84;;;12.87;69.81
11692;BME280;33659;42.672;23.354;2023-04-26T05:18:06;93413.50;;;12.90;69.83
11692;BME280;33659;42.672;23.354;2023-04-26T05:20:33;93409.38;;;12.93;69.65
11692;BME280;33659;42.672;23.354;2023-04-26T05:23:01;93411.63;;;12.94;69.44
11692;BME280;33659;42.672;23.354;2023-04-26T05:25:28;93418.41;;;12.99;69.22
11692;BME280;33659;42.672;23.354;2023-04-26T05:27:54;93418.44;;;13.02;69.08
11692;BME280;33659;42.672;23.354;2023-04-26T05:30:21;93427.06;;;13.03;69.03
11692;BME280;33659;42.672;23.354;2023-04-26T05:32:48;93415.81;;;13.02;69.14
11692;BME280;33659;42.672;23.354;2023-04-26T05:35:15;93427.03;;;12.99;68.25
11692;BME280;33659;42.672;23.354;2023-04-26T05:37:42;93422.53;;;12.96;68.70
11692;BME280;33659;42.672;23.354;2023-04-26T05:40:11;93427.44;;;13.01;68.67
11692;BME280;33659;42.672;23.354;2023-04-26T05:42:38;93428.22;;;13.13;68.72
11692;BME280;33659;42.672;23.354;2023-04-26T05:45:06;93428.72;;;13.29;68.08
11692;BME280;33659;42.672;23.354;2023-04-26T05:47:32;93428.81;;;13.43;67.19
11692;BME280;33659;42.672;23.354;2023-04-26T05:49:59;93426.97;;;13.47;66.69
11692;BME280;33659;42.672;23.354;2023-04-26T05:52:26;93434.09;;;13.58;65.72
11692;BME280;33659;42.672;23.354;2023-04-26T05:54:52;93434.09;;;13.58;65.12
11692;BME280;33659;42.672;23.354;2023-04-26T05:57:20;93435.66;;;13.66;65.23
11692;BME280;33659;42.672;23.354;2023-04-26T05:59:47;93436.00;;;13.61;65.18
11692;BME280;33659;42.672;23.354;2023-04-26T06:02:14;93430.00;;;13.64;64.75
11692;BME280;33659;42.672;23.354;2023-04-26T06:04:40;93436.38;;;13.63;65.07
11692;BME280;33659;42.672;23.354;2023-04-26T06:07:07;93431.84;;;13.52;65.71
11692;BME280;33659;42.672;23.354;2023-04-26T06:09:34;93437.13;;;13.60;66.10
11692;BME280;33659;42.672;23.354;2023-04-26T06:12:01;93439.00;;;13.63;66.17
11692;BME280;33659;42.672;23.354;2023-04-26T06:14:29;93432.66;;;13.67;66.30
11692;BME280;33659;42.672;23.354;2023-04-26T06:16:56;93437.56;;;13.76;66.34
11692;BME280;33659;42.672;23.354;2023-04-26T06:19:23;93433.09;;;13.87;66.15
11692;BME280;33659;42.672;23.354;2023-04-26T06:21:49;93444.38;;;13.91;66.18
11692;BME280;33659;42.672;23.354;2023-04-26T06:24:19;93435.75;;;14.01;66.39
11692;BME280;33659;42.672;23.354;2023-04-26T06:26:45;93447.44;;;14.22;66.23
11692;BME280;33659;42.672;23.354;2023-04-26T06:29:12;93439.56;;;14.36;65.85
11692;BME280;33659;42.672;23.354;2023-04-26T06:31:40;93436.63;;;14.48;65.28
11692;BME280;33659;42.672;23.354;2023-04-26T06:34:07;93441.13;;;14.44;65.15
11692;BME280;33659;42.672;23.354;2023-04-26T06:36:34;93438.09;;;14.46;65.04
11692;BME280;33659;42.672;23.354;2023-04-26T06:39:00;93422.72;;;14.33;63.74
11692;BME280;33659;42.672;23.354;2023-04-26T06:41:28;93435.78;;;14.08;62.83
11692;BME280;33659;42.672;23.354;2023-04-26T06:43:55;93434.59;;;13.88;62.44
11692;BME280;33659;42.672;23.354;2023-04-26T06:46:22;93435.34;;;13.81;63.06
11692;BME280;33659;42.672;23.354;2023-04-26T06:48:51;93429.66;;;13.69;62.00
11692;BME280;33659;42.672;23.354;2023-04-26T06:51:18;93474.03;;;13.26;61.54
11692;BME280;33659;42.672;23.354;2023-04-26T06:53:45;93435.44;;;12.75;61.54
11692;BME280;33659;42.672;23.354;2023-04-26T06:56:12;93440.09;;;12.48;62.07
11692;BME280;33659;42.672;23.354;2023-04-26T06:58:41;93457.84;;;12.25;62.60
11692;BME280;33659;42.672;23.354;2023-04-26T07:01:08;93449.47;;;12.08;62.67
11692;BME280;33659;42.672;23.354;2023-04-26T07:03:34;93441.97;;;12.07;63.63
11692;BME280;33659;42.672;23.354;2023-04-26T07:06:02;93441.06;;;11.92;63.18
11692;BME280;33659;42.672;23.354;2023-04-26T07:08:30;93439.84;;;11.82;63.63
11692;BME280;33659;42.672;23.354;2023-04-26T07:10:57;93438.47;;;11.92;63.53
11692;BME280;33659;42.672;23.354;2023-04-26T07:13:23;93449.59;;;11.85;63.79
11692;BME280;33659;42.672;23.354;2023-04-26T07:15:50;93461.94;;;11.88;64.53
11692;BME280;33659;42.672;23.354;2023-04-26T07:18:17;93446.72;;;11.98;63.38
11692;BME280;33659;42.672;23.354;2023-04-26T07:20:43;93451.63;;;12.03;62.89
11692;BME280;33659;42.672;23.354;2023-04-26T07:23:12;93455.75;;;12.04;63.71
11692;BME280;33659;42.672;23.354;2023-04-26T07:25:38;93469.06;;;12.25;64.04
11692;BME280;33659;42.672;23.354;2023-04-26T07:28:05;93457.13;;;12.28;63.10
11692;BME280;33659;42.672;23.354;2023-04-26T07:30:32;93441.06;;;12.29;62.67
11692;BME280;33659;42.672;23.354;2023-04-26T07:32:59;93465.03;;;12.31;62.71
11692;BME280;33659;42.672;23.354;2023-04-26T07:35:26;93458.69;;;12.32;61.92
11692;BME280;33659;42.672;23.354;2023-04-26T07:37:53;93471.13;;;12.09;61.79
11692;BME280;33659;42.672;23.354;2023-04-26T07:40:21;93449.84;;;12.10;61.63
11692;BME280;33659;42.672;23.354;2023-04-26T07:42:48;93437.53;;;12.11;62.71
11692;BME280;33659;42.672;23.354;2023-04-26T07:45:15;93476.06;;;12.51;61.37
11692;BME280;33659;42.672;23.354;2023-04-26T07:47:42;93465.97;;;12.53;60.25
11692;BME280;33659;42.672;23.354;2023-04-26T07:50:10;93477.91;;;12.51;60.91
11692;BME280;33659;42.672;23.354;2023-04-26T07:52:36;93484.53;;;12.37;60.33
11692;BME280;33659;42.672;23.354;2023-04-26T07:55:04;93491.94;;;12.32;60.66
11692;BME280;33659;42.672;23.354;2023-04-26T07:57:32;93439.16;;;12.26;59.44
11692;BME280;33659;42.672;23.354;2023-04-26T07:59:59;93484.94;;;12.06;59.56
11692;BME280;33659;42.672;23.354;2023-04-26T08:02:26;93495.72;;;12.01;58.98
11692;BME280;33659;42.672;23.354;2023-04-26T08:04:52;93465.75;;;11.95;59.76
11692;BME280;33659;42.672;23.354;2023-04-26T08:07:20;93458.00;;;12.02;60.46
11692;BME280;33659;42.672;23.354;2023-04-26T08:09:47;93481.34;;;12.17;60.35
11692;BME280;33659;42.672;23.354;2023-04-26T08:12:14;93501.50;;;12.17;59.92
11692;BME280;33659;42.672;23.354;2023-04-26T08:14:42;93509.47;;;11.94;60.21
11692;BME280;33659;42.672;23.354;2023-04-26T08:17:09;93481.84;;;11.97;60.27
11692;BME280;33659;42.672;23.354;2023-04-26T08:19:36;93496.59;;;12.12;59.66
11692;BME280;33659;42.672;23.354;2023-04-26T08:22:03;93489.69;;;11.97;59.24
11692;BME280;33659;42.672;23.354;2023-04-26T08:24:30;93479.66;;;12.02;59.97
11692;BME280;33659;42.672;23.354;2023-04-26T08:26:56;93464.72;;;12.03;60.16
11692;BME280;33659;42.672;23.354;2023-04-26T08:29:24;93480.63;;;12.20;60.53
11692;BME280;33659;42.672;23.354;2023-04-26T08:31:53;93474.44;;;12.39;61.02
11692;BME280;33659;42.672;23.354;2023-04-26T08:34:20;93477.72;;;12.70;61.58
11692;BME280;33659;42.672;23.354;2023-04-26T08:36:47;93470.38;;;12.90;60.10
11692;BME280;33659;42.672;23.354;2023-04-26T08:39:14;93450.19;;;12.90;59.73
11692;BME280;33659;42.672;23.354;2023-04-26T08:41:43;93483.91;;;12.95;59.32
11692;BME280;33659;42.672;23.354;2023-04-26T08:44:11;93463.72;;;12.99;58.57
11692;BME280;33659;42.672;23.354;2023-04-26T08:46:43;93477.97;;;13.02;58.88
11692;BME280;33659;42.672;23.354;2023-04-26T08:49:29;93502.31;;;13.06;58.69
11692;BME280;33659;42.672;23.354;2023-04-26T08:52:02;93490.03;;;13.14;58.49
11692;BME280;33659;42.672;23.354;2023-04-26T08:54:30;93471.81;;;13.32;56.92
11692;BME280;33659;42.672;23.354;2023-04-26T08:56:58;93460.16;;;13.25;57.41
11692;BME280;33659;42.672;23.354;2023-04-26T08:59:25;93493.16;;;13.30;56.14
11692;BME280;33659;42.672;23.354;2023-04-26T09:01:52;93495.41;;;13.28;56.72
11692;BME280;33659;42.672;23.354;2023-04-26T09:04:20;93492.78;;;13.28;56.29
11692;BME280;33659;42.672;23.354;2023-04-26T09:06:48;93490.16;;;13.32;57.26
11692;BME280;33659;42.672;23.354;2023-04-26T09:09:17;93469.94;;;13.32;56.74
11692;BME280;33659;42.672;23.354;2023-04-26T09:11:52;93498.50;;;13.48;56.22
11692;BME280;33659;42.672;23.354;2023-04-26T09:14:20;93477.56;;;13.59;56.04
11692;BME280;33659;42.672;23.354;2023-04-26T09:16:46;93483.97;;;13.65;56.80
11692;BME280;33659;42.672;23.354;2023-04-26T09:19:13;93486.56;;;13.58;56.68
11692;BME280;33659;42.672;23.354;2023-04-26T09:21:44;93484.75;;;13.69;56.49
11692;BME280;33659;42.672;23.354;2023-04-26T09:24:11;93468.66;;;13.74;55.89
11692;BME280;33659;42.672;23.354;2023-04-26T09:26:38;93502.47;;;13.90;55.08
11692;BME280;33659;42.672;23.354;2023-04-26T09:29:13;93494.19;;;13.84;55.19
11692;BME280;33659;42.672;23.354;2023-04-26T09:31:42;93486.69;;;13.79;54.54
11692;BME280;33659;42.672;23.354;2023-04-26T09:34:09;93478.75;;;13.68;54.77
11692;BME280;33659;42.672;23.354;2023-04-26T09:36:47;93496.78;;;13.77;55.00
11692;BME280;33659;42.672;23.354;2023-04-26T09:39:28;93484.44;;;13.81;54.24
11692;BME280;33659;42.672;23.354;2023-04-26T09:42:08;93470.97;;;13.90;54.71
11692;BME280;33659;42.672;23.354;2023-04-26T09:44:36;93486.75;;;13.93;54.37
11692;BME280;33659;42.672;23.354;2023-04-26T09:47:04;93490.88;;;14.01;54.11
11692;BME280;33659;42.672;23.354;2023-04-26T09:49:43;93474.75;;;14.03;52.82
11692;BME280;33659;42.672;23.354;2023-04-26T09:52:12;93477.41;;;14.06;53.41
11692;BME280;33659;42.672;23.354;2023-04-26T09:55:09;93479.34;;;14.24;53.07
11692;BME280;33659;42.672;23.354;2023-04-26T09:57:41;93492.47;;;14.24;52.44
11692;BME280;33659;42.672;23.354;2023-04-26T10:00:09;93480.81;;;14.11;52.40
11692;BME280;33659;42.672;23.354;2023-04-26T10:02:37;93469.16;;;14.04;52.77
11692;BME280;33659;42.672;23.354;2023-04-26T10:05:06;93459.06;;;14.14;52.97
11692;BME280;33659;42.672;23.354;2023-04-26T10:07:35;93465.09;;;14.25;51.28
11692;BME280;33659;42.672;23.354;2023-04-26T10:10:02;93482.72;;;14.24;50.83
11692;BME280;33659;42.672;23.354;2023-04-26T10:12:30;93466.94;;;14.14;49.54
11692;BME280;33659;42.672;23.354;2023-04-26T10:14:56;93455.66;;;14.09;50.16
11692;BME280;33659;42.672;23.354;2023-04-26T10:17:23;93478.56;;;14.20;50.38
11692;BME280;33659;42.672;23.354;2023-04-26T10:19:54;93453.50;;;14.36;50.82
11692;BME280;33659;42.672;23.354;2023-04-26T10:22:23;93444.13;;;14.53;48.73
11692;BME280;33659;42.672;23.354;2023-04-26T10:24:53;93449.41;;;14.57;49.43
11692;BME280;33659;42.672;23.354;2023-04-26T10:27:50;93444.53;;;14.62;47.99
11692;BME280;33659;42.672;23.354;2023-04-26T10:30:19;93465.91;;;14.68;49.16
11692;BME280;33659;42.672;23.354;2023-04-26T10:33:14;93456.94;;;14.62;47.47
11692;BME280;33659;42.672;23.354;2023-04-26T10:36:00;93443.38;;;14.53;47.87
11692;BME280;33659;42.672;23.354;2023-04-26T10:38:27;93479.78;;;14.54;47.73
11692;BME280;33659;42.672;23.354;2023-04-26T10:40:55;93443.75;;;14.48;47.78
11692;BME280;33659;42.672;23.354;2023-04-26T10:43:42;93456.91;;;14.55;48.22
11692;BME280;33659;42.672;23.354;2023-04-26T10:46:33;93430.63;;;14.55;46.94
11692;BME280;33659;42.672;23.354;2023-04-26T10:49:14;93437.41;;;14.59;47.08
11692;BME280;33659;42.672;23.354;2023-04-26T10:52:09;93440.78;;;14.56;47.02
11692;BME280;33659;42.672;23.354;2023-04-26T10:54:48;93465.16;;;14.50;47.02
11692;BME280;33659;42.672;23.354;2023-04-26T10:57:17;93426.88;;;14.52;47.14
11692;BME280;33659;42.672;23.354;2023-04-26T11:00:15;93425.38;;;14.51;46.46
11692;BME280;33659;42.672;23.354;2023-04-26T11:02:46;93462.53;;;14.57;46.18
11692;BME280;33659;42.672;23.354;2023-04-26T11:05:37;93443.41;;;14.63;46.46
11692;BME280;33659;42.672;23.354;2023-04-26T11:08:06;93417.13;;;14.49;46.63
11692;BME280;33659;42.672;23.354;2023-04-26T11:10:36;93440.00;;;14.74;46.02
11692;BME280;33659;42.672;23.354;2023-04-26T11:13:06;93446.03;;;14.85;46.22
11692;BME280;33659;42.672;23.354;2023-04-26T11:15:34;93413.34;;;14.93;44.87
11692;BME280;33659;42.672;23.354;2023-04-26T11:18:02;93445.28;;;14.88;44.41
11692;BME280;33659;42.672;23.354;2023-04-26T11:20:30;93442.63;;;14.81;43.64
11692;BME280;33659;42.672;23.354;2023-04-26T11:22:57;93443.41;;;14.78;43.60
11692;BME280;33659;42.672;23.354;2023-04-26T11:25:25;93449.03;;;14.80;43.91
11692;BME280;33659;42.672;23.354;2023-04-26T11:27:57;93451.66;;;14.87;44.34
11692;BME280;33659;42.672;23.354;2023-04-26T11:30:27;93435.13;;;14.94;44.96
11692;BME280;33659;42.672;23.354;2023-04-26T11:32:53;93430.97;;;15.17;44.74
11692;BME280;33659;42.672;23.354;2023-04-26T11:35:21;93440.75;;;15.21;43.27
11692;BME280;33659;42.672;23.354;2023-04-26T11:37:50;93432.88;;;15.10;43.59
11692;BME280;33659;42.672;23.354;2023-04-26T11:40:17;93455.81;;;14.95;44.28
11692;BME280;33659;42.672;23.354;2023-04-26T11:42:44;93472.72;;;14.94;43.95
11692;BME280;33659;42.672;23.354;2023-04-26T11:45:13;93465.94;;;14.93;42.92
11692;BME280;33659;42.672;23.354;2023-04-26T11:47:42;93431.03;;;14.89;43.73
11692;BME280;33659;42.672;23.354;2023-04-26T11:50:10;93425.38;;;14.80;43.94
11692;BME280;33659;42.672;23.354;2023-04-26T11:52:37;93442.63;;;14.81;43.37
11692;BME280;33659;42.672;23.354;2023-04-26T11:55:06;93474.97;;;14.81;43.41
11692;BME280;33659;42.672;23.354;2023-04-26T11:57:34;93455.03;;;14.87;43.42
11692;BME280;33659;42.672;23.354;2023-04-26T12:00:09;93452.78;;;14.93;43.04
11692;BME280;33659;42.672;23.354;2023-04-26T12:02:37;93417.50;;;15.01;42.67
11692;BME280;33659;42.672;23.354;2023-04-26T12:05:06;93427.25;;;14.97;43.00
11692;BME280;33659;42.672;23.354;2023-04-26T12:07:36;93451.28;;;14.99;42.87
11692;BME280;33659;42.672;23.354;2023-04-26T12:10:16;93422.00;;;14.79;42.86
11692;BME280;33659;42.672;23.354;2023-04-26T12:12:46;93447.53;;;14.89;43.36
11692;BME280;33659;42.672;23.354;2023-04-26T12:15:13;93433.28;;;14.83;43.45
11692;BME280;33659;42.672;23.354;2023-04-26T12:17:40;93411.13;;;14.67;44.00
11692;BME280;33659;42.672;23.354;2023-04-26T12:20:18;93414.13;;;14.61;44.19
11692;BME280;33659;42.672;23.354;2023-04-26T12:22:59;93426.50;;;14.72;43.74
11692;BME280;33659;42.672;23.354;2023-04-26T12:25:26;93423.13;;;14.82;43.14
11692;BME280;33659;42.672;23.354;2023-04-26T12:27:53;93411.09;;;15.02;42.60
11692;BME280;33659;42.672;23.354;2023-04-26T12:30:20;93422.72;;;15.05;42.90
11692;BME280;33659;42.672;23.354;2023-04-26T12:32:47;93423.50;;;14.84;43.14
11692;BME280;33659;42.672;23.354;2023-04-26T12:35:14;93420.13;;;14.87;43.39
11692;BME280;33659;42.672;23.354;2023-04-26T12:37:42;93411.88;;;14.88;42.86
11692;BME280;33659;42.672;23.354;2023-04-26T12:40:10;93410.72;;;14.86;42.69
11692;BME280;33659;42.672;23.354;2023-04-26T12:42:38;93417.13;;;14.78;43.20
11692;BME280;33659;42.672;23.354;2023-04-26T12:45:06;93411.13;;;14.59;43.72
11692;BME280;33659;42.672;23.354;2023-04-26T12:47:33;93443.03;;;14.69;43.71
11692;BME280;33659;42.672;23.354;2023-04-26T12:50:00;93403.22;;;14.59;43.70
11692;BME280;33659;42.672;23.354;2023-04-26T12:52:27;93423.88;;;14.68;44.14
11692;BME280;33659;42.672;23.354;2023-04-26T12:54:55;93400.97;;;14.54;44.19
11692;BME280;33659;42.672;23.354;2023-04-26T12:57:22;93418.97;;;14.42;44.29